createdAt,value
2022-11-23T00:01:49.778Z,2.30
2022-11-23T00:04:23.528Z,2.40
2022-11-23T00:06:50.450Z,2.30
2022-11-23T00:09:23.512Z,2.30
2022-11-23T00:11:50.405Z,2.30
2022-11-23T00:14:24.585Z,2.50
2022-11-23T00:16:51.901Z,2.40
2022-11-23T00:19:18.764Z,2.50
2022-11-23T00:21:52.558Z,2.50
2022-11-23T00:24:19.468Z,2.40
2022-11-23T00:26:52.524Z,2.30
2022-11-23T00:29:19.441Z,2.40
2022-11-23T00:31:52.543Z,2.40
2022-11-23T00:34:25.540Z,2.40
2022-11-23T00:36:58.573Z,2.30
2022-11-23T00:39:32.427Z,2.20
2022-11-23T00:42:05.588Z,2.20
2022-11-23T00:44:32.413Z,2.20
2022-11-23T00:47:05.551Z,2.20
2022-11-23T00:49:32.742Z,2.00
2022-11-23T00:52:06.598Z,2.00
2022-11-23T00:54:33.536Z,2.00
2022-11-23T00:57:00.415Z,1.90
2022-11-23T00:59:33.949Z,1.70
2022-11-23T01:02:01.115Z,1.70
2022-11-23T01:04:28.208Z,1.90
2022-11-23T01:07:04.563Z,1.90
2022-11-23T01:09:31.706Z,1.90
2022-11-23T01:12:05.548Z,1.80
2022-11-23T01:14:32.416Z,1.80
2022-11-23T01:17:05.595Z,1.80
2022-11-23T01:19:32.588Z,2.00
2022-11-23T01:22:06.554Z,2.00
2022-11-23T01:24:39.606Z,2.00
2022-11-23T01:27:06.484Z,1.80
2022-11-23T01:29:39.555Z,1.80
2022-11-23T01:32:06.426Z,1.70
2022-11-23T01:34:39.622Z,1.70
2022-11-23T01:37:06.467Z,1.80
2022-11-23T01:39:39.580Z,1.70
2022-11-23T01:42:06.474Z,1.60
2022-11-23T01:44:41.592Z,1.60
2022-11-23T01:47:09.308Z,1.50
2022-11-23T01:49:47.568Z,1.40
2022-11-23T01:52:20.556Z,1.30
2022-11-23T01:55:08.119Z,1.20
2022-11-23T01:57:39.084Z,1.20
2022-11-23T02:00:13.657Z,1.20
2022-11-23T02:02:44.627Z,1.00
2022-11-23T02:05:18.563Z,0.90
2022-11-23T02:07:53.645Z,0.80
2022-11-23T02:10:27.623Z,0.90
2022-11-23T02:13:00.596Z,0.90
2022-11-23T02:15:27.548Z,1.00
2022-11-23T02:18:00.621Z,1.00
2022-11-23T02:20:27.606Z,0.90
2022-11-23T02:23:34.595Z,1.00
2022-11-23T02:26:09.931Z,1.10
2022-11-23T02:28:50.599Z,1.00
2022-11-23T02:31:17.439Z,1.00
2022-11-23T02:33:50.651Z,1.10
2022-11-23T02:36:40.040Z,0.90
2022-11-23T02:39:37.648Z,0.90
2022-11-23T02:42:05.078Z,0.80
2022-11-23T02:45:02.579Z,0.80
2022-11-23T02:47:29.515Z,0.70
2022-11-23T02:49:56.527Z,0.70
2022-11-23T02:52:29.581Z,0.60
2022-11-23T02:54:56.423Z,0.70
2022-11-23T02:57:29.601Z,0.70
2022-11-23T02:59:56.490Z,0.70
2022-11-23T03:02:29.577Z,0.70
2022-11-23T03:04:56.465Z,0.80
2022-11-23T03:07:29.685Z,0.80
2022-11-23T03:09:56.624Z,0.80
2022-11-23T03:12:29.659Z,0.70
2022-11-23T03:14:56.571Z,0.70
2022-11-23T03:17:23.472Z,0.80
2022-11-23T03:19:57.686Z,0.90
2022-11-23T03:22:24.719Z,0.80
2022-11-23T03:24:57.666Z,0.80
2022-11-23T03:27:24.508Z,0.80
2022-11-23T03:29:57.675Z,0.80
2022-11-23T03:32:30.653Z,0.80
2022-11-23T03:34:57.506Z,0.90
2022-11-23T03:37:30.587Z,0.80
2022-11-23T03:39:57.440Z,0.90
2022-11-23T03:42:24.389Z,0.80
2022-11-23T03:44:57.718Z,0.70
2022-11-23T03:47:31.626Z,0.70
2022-11-23T03:50:04.654Z,0.60
2022-11-23T03:52:37.676Z,0.70
2022-11-23T03:55:05.301Z,0.60
2022-11-23T03:57:32.180Z,0.60
2022-11-23T04:00:05.639Z,0.60
2022-11-23T04:02:32.611Z,0.60
2022-11-23T04:05:05.664Z,0.70
2022-11-23T04:07:32.715Z,0.70
2022-11-23T04:10:05.644Z,0.70
2022-11-23T04:12:32.573Z,0.70
2022-11-23T04:15:05.676Z,0.80
2022-11-23T04:17:32.555Z,0.90
2022-11-23T04:20:05.653Z,1.00
2022-11-23T04:22:38.716Z,0.90
2022-11-23T04:25:06.073Z,0.90
2022-11-23T04:27:39.667Z,0.70
2022-11-23T04:30:07.378Z,0.70
2022-11-23T04:32:40.757Z,0.70
2022-11-23T04:35:14.700Z,0.70
2022-11-23T04:37:41.693Z,0.60
2022-11-23T04:40:16.707Z,0.70
2022-11-23T04:42:49.655Z,0.70
2022-11-23T04:45:22.661Z,0.70
2022-11-23T04:47:49.599Z,0.60
2022-11-23T04:50:23.725Z,0.50
2022-11-23T04:52:50.614Z,0.50
2022-11-23T04:55:17.672Z,0.30
2022-11-23T04:57:50.635Z,0.50
2022-11-23T05:00:17.948Z,0.50
2022-11-23T05:02:51.750Z,0.40
2022-11-23T05:05:18.813Z,0.40
2022-11-23T05:07:45.746Z,0.50
2022-11-23T05:10:19.719Z,0.30
2022-11-23T05:12:53.687Z,0.20
2022-11-23T05:15:26.750Z,0.30
2022-11-23T05:17:58.849Z,0.20
2022-11-23T05:20:32.718Z,0.20
2022-11-23T05:22:59.778Z,0.20
2022-11-23T05:25:27.034Z,0.20
2022-11-23T05:28:07.501Z,0.20
2022-11-23T05:30:54.677Z,0.30
2022-11-23T05:33:21.655Z,0.30
2022-11-23T05:35:48.774Z,0.40
2022-11-23T05:38:22.674Z,0.50
2022-11-23T05:40:55.672Z,0.40
2022-11-23T05:43:22.631Z,0.40
2022-11-23T05:45:55.691Z,0.40
2022-11-23T05:48:22.693Z,0.40
2022-11-23T05:50:50.709Z,0.40
2022-11-23T05:53:23.705Z,0.50
2022-11-23T05:55:50.729Z,0.60
2022-11-23T05:58:23.713Z,0.60
2022-11-23T06:00:50.766Z,0.50
2022-11-23T06:03:23.750Z,0.40
2022-11-23T06:05:50.730Z,0.50
2022-11-23T06:08:23.687Z,0.40
2022-11-23T06:10:50.677Z,0.50
2022-11-23T06:13:23.763Z,0.30
2022-11-23T06:15:56.746Z,0.20
2022-11-23T06:18:23.651Z,0.10
2022-11-23T06:20:56.773Z,0.20
2022-11-23T06:23:23.832Z,0.50
2022-11-23T06:25:57.700Z,0.50
2022-11-23T06:28:30.777Z,0.60
2022-11-23T06:31:01.928Z,0.80
2022-11-23T06:33:28.907Z,0.70
2022-11-23T06:36:03.770Z,0.40
2022-11-23T06:38:37.673Z,0.30
2022-11-23T06:41:10.780Z,0.30
2022-11-23T06:43:37.714Z,0.30
2022-11-23T06:46:12.749Z,0.20
2022-11-23T06:48:39.625Z,0.20
2022-11-23T06:51:12.746Z,0.40
2022-11-23T06:53:45.783Z,0.30
2022-11-23T06:56:19.847Z,0.30
2022-11-23T06:58:46.919Z,0.20
2022-11-23T07:01:14.514Z,0.30
2022-11-23T07:03:47.766Z,0.30
2022-11-23T07:06:21.784Z,0.40
2022-11-23T07:08:55.008Z,0.50
2022-11-23T07:11:21.968Z,0.60
2022-11-23T07:13:55.795Z,0.70
2022-11-23T07:16:22.727Z,0.80
2022-11-23T07:18:56.081Z,0.80
2022-11-23T07:21:22.975Z,1.00
2022-11-23T07:23:56.897Z,1.20
2022-11-23T07:26:23.810Z,1.30
2022-11-23T07:28:50.713Z,1.40
2022-11-23T07:31:23.717Z,1.30
2022-11-23T07:33:56.750Z,1.30
2022-11-23T07:36:23.677Z,1.30
2022-11-23T07:38:56.745Z,1.40
2022-11-23T07:41:29.693Z,1.40
2022-11-23T07:43:56.598Z,1.50
2022-11-23T07:46:29.765Z,1.70
2022-11-23T07:48:56.765Z,3.50
2022-11-23T07:51:29.730Z,5.40
2022-11-23T07:53:56.816Z,6.80
2022-11-23T07:56:30.746Z,7.80
2022-11-23T07:58:57.637Z,9.30
2022-11-23T08:01:30.740Z,9.40
2022-11-23T08:04:04.790Z,9.40
2022-11-23T08:06:31.668Z,9.80
2022-11-23T08:09:04.767Z,9.80
2022-11-23T08:11:31.683Z,10.30
2022-11-23T08:14:04.853Z,8.90
2022-11-23T08:16:38.748Z,7.60
2022-11-23T08:19:05.770Z,6.90
2022-11-23T08:21:38.720Z,6.30
2022-11-23T08:24:06.024Z,5.80
2022-11-23T08:26:39.790Z,5.80
2022-11-23T08:29:16.080Z,5.80
2022-11-23T08:31:42.992Z,5.50
2022-11-23T08:34:16.715Z,5.40
2022-11-23T08:36:43.617Z,5.70
2022-11-23T08:39:16.762Z,5.90
2022-11-23T08:41:49.764Z,5.90
2022-11-23T08:44:30.152Z,6.10
2022-11-23T08:47:03.806Z,6.30
2022-11-23T08:49:30.685Z,6.50
2022-11-23T08:52:03.781Z,6.70
2022-11-23T08:54:38.767Z,7.00
2022-11-23T08:57:05.714Z,7.10
2022-11-23T08:59:38.738Z,7.20
2022-11-23T09:02:05.637Z,7.40
2022-11-23T09:04:38.768Z,7.30
2022-11-23T09:07:05.743Z,7.40
2022-11-23T09:09:38.779Z,7.50
2022-11-23T09:12:06.207Z,7.50
2022-11-23T09:14:39.780Z,7.50
2022-11-23T09:17:06.705Z,7.50
2022-11-23T09:19:39.758Z,7.70
2022-11-23T09:22:06.654Z,7.90
2022-11-23T09:24:39.838Z,8.00
2022-11-23T09:27:06.822Z,8.10
2022-11-23T09:29:42.266Z,8.20
2022-11-23T09:32:09.132Z,8.20
2022-11-23T09:34:36.114Z,8.40
2022-11-23T09:37:09.798Z,8.40
2022-11-23T09:39:36.702Z,8.70
2022-11-23T09:42:21.766Z,8.70
2022-11-23T09:45:27.593Z,8.80
2022-11-23T09:48:35.839Z,8.90
2022-11-23T09:51:23.844Z,9.00
2022-11-23T09:54:02.352Z,9.00
2022-11-23T09:56:41.796Z,9.10
2022-11-23T09:59:21.422Z,9.30
2022-11-23T10:01:54.869Z,9.30
2022-11-23T10:04:21.987Z,9.40
2022-11-23T10:07:02.757Z,9.50
2022-11-23T10:10:06.853Z,9.60
2022-11-23T10:12:46.807Z,9.70
2022-11-23T10:15:37.925Z,9.80
2022-11-23T10:18:29.793Z,10.00
2022-11-23T10:21:25.834Z,10.10
2022-11-23T10:24:08.878Z,10.20
2022-11-23T10:26:41.282Z,10.30
2022-11-23T10:29:35.805Z,10.50
2022-11-23T10:32:02.706Z,10.60
2022-11-23T10:34:57.849Z,10.70
2022-11-23T10:37:24.780Z,10.80
2022-11-23T10:39:57.845Z,10.80
2022-11-23T10:42:48.858Z,10.90
2022-11-23T10:45:27.060Z,11.00
2022-11-23T10:48:07.858Z,11.20
2022-11-23T10:50:36.772Z,11.20
2022-11-23T10:53:06.685Z,11.30
2022-11-23T10:55:52.895Z,11.40
2022-11-23T10:58:39.843Z,11.50
2022-11-23T11:01:31.987Z,11.60
2022-11-23T11:04:09.799Z,11.70
2022-11-23T11:06:36.709Z,11.80
2022-11-23T11:09:25.873Z,11.80
2022-11-23T11:11:58.799Z,11.90
2022-11-23T11:14:25.841Z,12.00
2022-11-23T11:17:03.836Z,12.00
2022-11-23T11:19:35.627Z,12.00
2022-11-23T11:22:30.876Z,12.00
2022-11-23T11:25:06.250Z,12.10
2022-11-23T11:27:39.824Z,12.20
2022-11-23T11:30:14.921Z,12.20
2022-11-23T11:33:10.962Z,12.20
2022-11-23T11:35:51.903Z,12.30
2022-11-23T11:38:34.912Z,12.40
2022-11-23T11:41:08.454Z,12.40
2022-11-23T11:43:50.865Z,12.50
2022-11-23T11:46:31.138Z,12.50
2022-11-23T11:49:30.960Z,12.60
2022-11-23T11:52:20.759Z,12.70
2022-11-23T11:55:19.969Z,12.80
2022-11-23T11:57:55.304Z,12.90
2022-11-23T12:00:28.871Z,12.80
2022-11-23T12:03:18.491Z,13.00
2022-11-23T12:05:59.907Z,13.10
2022-11-23T12:09:06.402Z,13.10
2022-11-23T12:11:39.984Z,13.10
2022-11-23T12:14:11.051Z,13.20
2022-11-23T12:17:31.415Z,13.30
2022-11-23T12:20:02.302Z,13.30
2022-11-23T12:22:45.874Z,13.30
2022-11-23T12:25:27.342Z,13.30
2022-11-23T12:28:25.971Z,13.60
2022-11-23T12:31:07.862Z,13.60
2022-11-23T12:34:16.911Z,13.50
2022-11-23T12:37:17.917Z,13.50
2022-11-23T12:40:20.928Z,13.40
2022-11-23T12:42:56.032Z,13.50
2022-11-23T12:45:51.986Z,13.50
2022-11-23T12:48:37.070Z,13.60
2022-11-23T12:52:19.881Z,13.70
2022-11-23T12:55:31.933Z,13.70
2022-11-23T12:58:15.023Z,13.80
2022-11-23T13:00:53.584Z,13.80
2022-11-23T13:04:11.928Z,13.70
2022-11-23T13:07:28.959Z,13.60
2022-11-23T13:10:31.932Z,13.80
2022-11-23T13:13:23.944Z,13.80
2022-11-23T13:16:34.844Z,13.90
2022-11-23T13:19:29.929Z,13.90
2022-11-23T13:21:56.920Z,13.80
2022-11-23T13:24:41.954Z,13.70
2022-11-23T13:27:15.006Z,13.70
2022-11-23T13:29:56.886Z,13.70
2022-11-23T13:32:39.214Z,13.60
2022-11-23T13:35:27.888Z,13.60
2022-11-23T13:37:57.460Z,13.70
2022-11-23T13:40:38.956Z,13.50
2022-11-23T13:43:21.954Z,13.50
2022-11-23T13:46:25.943Z,13.60
2022-11-23T13:48:59.900Z,13.50
2022-11-23T13:51:33.818Z,13.60
2022-11-23T13:54:27.983Z,13.60
2022-11-23T13:57:01.452Z,13.50
2022-11-23T13:59:38.960Z,13.50
2022-11-23T14:02:09.004Z,13.60
2022-11-23T14:04:46.994Z,13.60
2022-11-23T14:07:24.720Z,13.40
2022-11-23T14:10:10.134Z,13.40
2022-11-23T14:12:57.317Z,13.20
2022-11-23T14:15:32.971Z,13.10
2022-11-23T14:18:29.946Z,13.20
2022-11-23T14:21:17.530Z,13.30
2022-11-23T14:24:14.149Z,13.20
2022-11-23T14:27:45.772Z,13.10
2022-11-23T14:30:28.984Z,13.10
2022-11-23T14:33:16.768Z,13.00
2022-11-23T14:36:05.006Z,13.10
2022-11-23T14:39:02.975Z,13.00
2022-11-23T14:41:39.022Z,13.00
2022-11-23T14:44:05.943Z,12.90
2022-11-23T14:47:16.029Z,12.80
2022-11-23T14:49:50.557Z,12.70
2022-11-23T14:52:27.984Z,12.60
2022-11-23T14:55:00.107Z,12.70
2022-11-23T14:57:53.940Z,12.70
2022-11-23T15:00:38.561Z,12.60
2022-11-23T15:06:16.204Z,12.40
2022-11-23T15:09:02.998Z,12.30
2022-11-23T15:11:35.955Z,12.30
2022-11-23T15:14:02.999Z,12.30
2022-11-23T15:16:32.388Z,12.20
2022-11-23T15:19:30.969Z,12.20
2022-11-23T15:22:04.052Z,12.10
2022-11-23T15:24:31.601Z,12.00
2022-11-23T15:27:12.731Z,11.90
2022-11-23T15:29:40.002Z,11.90
2022-11-23T15:32:37.087Z,11.90
2022-11-23T15:35:13.048Z,11.80
2022-11-23T15:37:46.886Z,11.70
2022-11-23T15:40:25.011Z,11.50
2022-11-23T15:42:51.937Z,11.40
2022-11-23T15:45:46.012Z,11.20
2022-11-23T15:48:21.758Z,11.10
2022-11-23T15:51:06.025Z,10.90
2022-11-23T15:53:50.054Z,10.70
2022-11-23T15:56:38.098Z,10.70
2022-11-23T15:59:34.975Z,10.30
2022-11-23T16:02:11.077Z,10.30
2022-11-23T16:04:39.996Z,10.20
2022-11-23T16:07:23.152Z,10.20
2022-11-23T16:10:43.459Z,9.80
2022-11-23T16:13:44.030Z,9.70
2022-11-23T16:16:16.100Z,9.70
2022-11-23T16:18:54.024Z,9.60
2022-11-23T16:21:21.090Z,9.50
2022-11-23T16:24:03.013Z,9.40
2022-11-23T16:26:39.073Z,9.20
2022-11-23T16:29:05.985Z,9.20
2022-11-23T16:31:47.019Z,9.10
2022-11-23T16:34:16.976Z,9.00
2022-11-23T16:36:43.914Z,8.80
2022-11-23T16:39:18.038Z,8.70
2022-11-23T16:41:45.008Z,8.60
2022-11-23T16:44:18.052Z,8.60
2022-11-23T16:46:47.263Z,8.50
2022-11-23T16:49:26.035Z,8.60
2022-11-23T16:51:56.725Z,8.50
2022-11-23T16:54:31.075Z,8.50
2022-11-23T16:56:57.972Z,8.50
2022-11-23T16:59:31.639Z,8.40
2022-11-23T17:01:59.374Z,8.10
2022-11-23T17:04:26.454Z,7.80
2022-11-23T17:07:00.079Z,7.50
2022-11-23T17:09:27.016Z,7.40
2022-11-23T17:12:00.048Z,7.30
2022-11-23T17:14:33.423Z,7.10
2022-11-23T17:17:07.046Z,7.00
2022-11-23T17:19:41.050Z,6.90
2022-11-23T17:22:08.016Z,7.00
2022-11-23T17:24:41.068Z,7.00
2022-11-23T17:27:15.991Z,7.10
2022-11-23T17:29:50.072Z,7.10
2022-11-23T17:32:23.095Z,6.90
2022-11-23T17:34:50.060Z,6.80
2022-11-23T17:37:30.054Z,6.80
2022-11-23T17:40:03.108Z,6.90
2022-11-23T17:42:30.069Z,7.00
2022-11-23T17:45:03.072Z,7.00
2022-11-23T17:47:30.276Z,7.10
2022-11-23T17:49:57.589Z,7.20
2022-11-23T17:52:31.061Z,7.10
2022-11-23T17:55:04.124Z,7.00
2022-11-23T17:57:31.282Z,7.10
2022-11-23T18:00:05.132Z,6.90
2022-11-23T18:02:32.121Z,6.80
2022-11-23T18:05:05.109Z,6.70
2022-11-23T18:07:32.381Z,6.60
2022-11-23T18:09:59.659Z,6.60
2022-11-23T18:12:33.170Z,6.50
2022-11-23T18:15:00.221Z,6.40
2022-11-23T18:17:34.142Z,6.30
2022-11-23T18:20:01.142Z,6.00
2022-11-23T18:22:35.051Z,6.00
2022-11-23T18:25:02.293Z,6.00
2022-11-23T18:27:36.301Z,6.10
2022-11-23T18:30:03.697Z,6.10
2022-11-23T18:32:37.157Z,6.10
2022-11-23T18:35:04.471Z,6.00
2022-11-23T18:37:45.066Z,6.10
2022-11-23T18:40:13.022Z,6.00
2022-11-23T18:42:46.095Z,5.90
2022-11-23T18:45:19.761Z,5.90
2022-11-23T18:47:53.080Z,5.60
2022-11-23T18:50:20.209Z,5.50
2022-11-23T18:52:54.076Z,5.30
2022-11-23T18:55:27.085Z,5.20
2022-11-23T18:57:54.830Z,5.10
2022-11-23T19:00:22.328Z,5.20
2022-11-23T19:03:04.073Z,5.30
2022-11-23T19:05:33.193Z,5.30
2022-11-23T19:08:08.138Z,5.40
2022-11-23T19:10:39.483Z,5.50
2022-11-23T19:13:06.503Z,5.80
2022-11-23T19:15:49.899Z,5.80
2022-11-23T19:18:23.204Z,5.60
2022-11-23T19:20:50.160Z,5.60
2022-11-23T19:23:28.270Z,5.50
2022-11-23T19:26:01.719Z,5.20
2022-11-23T19:28:35.168Z,5.20
2022-11-23T19:31:15.906Z,5.30
2022-11-23T19:33:51.076Z,5.30
2022-11-23T19:36:26.155Z,5.30
2022-11-23T19:38:59.137Z,5.30
2022-11-23T19:41:30.492Z,4.90
2022-11-23T19:44:05.174Z,4.90
2022-11-23T19:46:34.878Z,4.90
2022-11-23T19:49:11.106Z,4.90
2022-11-23T19:51:38.001Z,4.90
2022-11-23T19:54:11.155Z,4.60
2022-11-23T19:56:38.070Z,4.60
2022-11-23T19:59:11.134Z,4.60
2022-11-23T20:01:38.111Z,4.60
2022-11-23T20:04:12.109Z,4.70
2022-11-23T20:06:40.509Z,4.40
2022-11-23T20:09:19.153Z,4.40
2022-11-23T20:11:52.154Z,4.50
2022-11-23T20:14:26.163Z,4.50
2022-11-23T20:16:59.159Z,4.40
2022-11-23T20:19:26.118Z,4.30
2022-11-23T20:21:59.166Z,4.10
2022-11-23T20:24:26.126Z,4.10
2022-11-23T20:26:59.181Z,3.90
2022-11-23T20:29:26.423Z,3.70
2022-11-23T20:32:00.555Z,3.60
2022-11-23T20:34:34.637Z,3.70
2022-11-23T20:37:08.274Z,3.80
2022-11-23T20:39:35.185Z,3.80
2022-11-23T20:42:02.048Z,3.80
2022-11-23T20:44:35.440Z,3.80
2022-11-23T20:47:09.415Z,3.80
2022-11-23T20:49:43.202Z,3.80
2022-11-23T20:52:17.206Z,3.80
2022-11-23T20:54:50.169Z,3.90
2022-11-23T20:57:17.210Z,3.90
2022-11-23T20:59:51.158Z,3.90
2022-11-23T21:02:24.202Z,3.80
2022-11-23T21:04:51.181Z,3.80
2022-11-23T21:07:25.237Z,3.90
2022-11-23T21:09:52.295Z,3.90
2022-11-23T21:12:26.231Z,3.90
2022-11-23T21:14:53.286Z,4.00
2022-11-23T21:17:27.204Z,4.00
2022-11-23T21:19:54.194Z,4.00
2022-11-23T21:22:28.259Z,3.90
2022-11-23T21:25:05.202Z,4.10
2022-11-23T21:27:32.222Z,4.20
2022-11-23T21:29:59.235Z,4.20
2022-11-23T21:32:33.211Z,4.10
2022-11-23T21:35:00.562Z,3.90
2022-11-23T21:37:34.150Z,3.60
2022-11-23T21:40:01.172Z,3.30
2022-11-23T21:42:28.133Z,3.20
2022-11-23T21:45:01.251Z,3.20
2022-11-23T21:47:28.202Z,3.20
2022-11-23T21:50:02.235Z,3.20
2022-11-23T21:52:29.245Z,3.20
2022-11-23T21:55:02.181Z,3.10
2022-11-23T21:57:29.122Z,3.10
2022-11-23T22:00:02.172Z,3.10
2022-11-23T22:02:29.248Z,3.00
2022-11-23T22:05:02.242Z,2.90
2022-11-23T22:07:29.514Z,2.70
2022-11-23T22:10:03.200Z,2.80
2022-11-23T22:12:30.191Z,2.90
2022-11-23T22:14:57.131Z,2.90
2022-11-23T22:17:30.169Z,2.90
2022-11-23T22:19:57.116Z,3.00
2022-11-23T22:22:30.163Z,3.10
2022-11-23T22:24:57.160Z,3.20
2022-11-23T22:27:30.170Z,3.10
2022-11-23T22:29:57.054Z,3.00
2022-11-23T22:32:30.197Z,2.80
2022-11-23T22:34:57.089Z,2.80
2022-11-23T22:37:30.201Z,2.60
2022-11-23T22:39:57.133Z,2.60
2022-11-23T22:42:24.063Z,2.40
2022-11-23T22:44:57.213Z,2.30
2022-11-23T22:47:24.180Z,2.30
2022-11-23T22:49:57.200Z,2.30
2022-11-23T22:52:24.121Z,2.40
2022-11-23T22:54:57.156Z,2.40
2022-11-23T22:57:24.058Z,2.50
2022-11-23T22:59:57.179Z,2.40
2022-11-23T23:02:24.050Z,2.40
2022-11-23T23:04:57.203Z,2.40
2022-11-23T23:07:31.275Z,2.20
2022-11-23T23:09:58.417Z,2.30
2022-11-23T23:12:32.246Z,2.40
2022-11-23T23:14:59.200Z,2.20
2022-11-23T23:17:26.229Z,2.10
2022-11-23T23:19:59.191Z,2.10
2022-11-23T23:22:26.052Z,2.00
2022-11-23T23:24:59.208Z,2.10
2022-11-23T23:27:26.143Z,2.10
2022-11-23T23:29:59.245Z,2.10
2022-11-23T23:32:29.117Z,2.20
2022-11-23T23:35:02.172Z,2.40
2022-11-23T23:37:29.089Z,2.30
2022-11-23T23:40:02.179Z,2.30
2022-11-23T23:42:29.140Z,2.20
2022-11-23T23:45:02.213Z,2.10
2022-11-23T23:47:29.213Z,2.20
2022-11-23T23:50:02.238Z,2.30
2022-11-23T23:52:29.135Z,2.30
2022-11-23T23:55:02.202Z,2.30
2022-11-23T23:57:29.961Z,2.40
